createdAt,value
2018-12-01T00:00:54.403Z,17.80
2018-12-01T00:03:23.101Z,19.00
2018-12-01T00:05:57.419Z,18.25
2018-12-01T00:08:26.103Z,17.90
2018-12-01T00:10:54.783Z,21.02
2018-12-01T00:13:23.486Z,19.17
2018-12-01T00:15:52.285Z,19.67
2018-12-01T00:18:20.995Z,19.90
2018-12-01T00:20:49.703Z,18.77
2018-12-01T00:23:18.439Z,22.50
2018-12-01T00:25:47.121Z,21.55
2018-12-01T00:28:15.806Z,21.82
2018-12-01T00:30:44.507Z,20.00
2018-12-01T00:33:13.190Z,22.13
2018-12-01T00:35:41.900Z,22.98
2018-12-01T00:38:10.658Z,21.37
2018-12-01T00:40:39.324Z,22.98
2018-12-01T00:43:07.989Z,20.80
2018-12-01T00:45:36.687Z,22.55
2018-12-01T00:48:05.369Z,22.70
2018-12-01T00:50:34.051Z,23.57
2018-12-01T00:53:02.725Z,21.35
2018-12-01T00:55:31.409Z,20.27
2018-12-01T00:58:00.078Z,22.10
2018-12-01T01:00:28.907Z,22.17
2018-12-01T01:02:58.722Z,20.17
2018-12-01T01:05:29.269Z,20.25
2018-12-01T01:07:58.666Z,17.45
2018-12-01T01:10:29.407Z,19.48
2018-12-01T01:12:58.115Z,20.82
2018-12-01T01:15:26.815Z,20.35
2018-12-01T01:17:55.481Z,17.25
2018-12-01T01:20:24.421Z,17.70
2018-12-01T01:22:53.131Z,17.32
2018-12-01T01:25:21.838Z,18.95
2018-12-01T01:27:50.525Z,20.55
2018-12-01T01:30:21.014Z,19.73
2018-12-01T01:32:50.640Z,20.00
2018-12-01T01:35:19.344Z,18.80
2018-12-01T01:37:48.054Z,20.77
2018-12-01T01:40:17.513Z,23.65
2018-12-01T01:42:46.212Z,22.27
2018-12-01T01:45:21.592Z,23.90
2018-12-01T01:47:50.271Z,22.55
2018-12-01T01:50:20.143Z,23.77
2018-12-01T01:52:48.970Z,24.07
2018-12-01T01:55:17.674Z,19.87
2018-12-01T01:57:46.354Z,23.05
2018-12-01T02:00:16.115Z,24.15
2018-12-01T02:02:48.806Z,22.87
2018-12-01T02:05:18.609Z,24.70
2018-12-01T02:07:47.286Z,26.20
2018-12-01T02:10:16.794Z,27.32
2018-12-01T02:12:45.474Z,24.02
2018-12-01T02:15:14.467Z,21.33
2018-12-01T02:17:43.143Z,25.32
2018-12-01T02:20:13.586Z,24.27
2018-12-01T02:22:42.253Z,25.08
2018-12-01T02:25:13.916Z,25.32
2018-12-01T02:27:42.614Z,24.05
2018-12-01T02:30:14.301Z,26.17
2018-12-01T02:32:42.971Z,24.35
2018-12-01T02:35:15.931Z,27.10
2018-12-01T02:37:44.609Z,25.60
2018-12-01T02:40:13.803Z,20.37
2018-12-01T02:42:42.964Z,22.25
2018-12-01T02:45:23.245Z,24.27
2018-12-01T02:47:51.900Z,21.93
2018-12-01T02:50:26.189Z,23.02
2018-12-01T02:52:55.878Z,21.42
2018-12-01T02:55:24.622Z,21.20
2018-12-01T02:57:53.325Z,19.62
2018-12-01T03:00:22.018Z,19.87
2018-12-01T03:02:50.694Z,20.88
2018-12-01T03:05:19.374Z,20.55
2018-12-01T03:07:48.045Z,20.45
2018-12-01T03:10:17.102Z,23.83
2018-12-01T03:12:45.779Z,21.05
2018-12-01T03:15:15.333Z,20.50
2018-12-01T03:17:44.022Z,18.20
2018-12-01T03:20:14.375Z,16.77
2018-12-01T03:22:43.130Z,16.65
2018-12-01T03:25:18.368Z,16.57
2018-12-01T03:27:47.706Z,18.32
2018-12-01T03:30:21.288Z,15.45
2018-12-01T03:32:50.908Z,14.05
2018-12-01T03:35:20.196Z,13.40
2018-12-01T03:37:49.468Z,15.28
2018-12-01T03:40:19.922Z,12.90
2018-12-01T03:42:49.023Z,13.90
2018-12-01T03:45:22.309Z,18.17
2018-12-01T03:47:50.990Z,18.55
2018-12-01T03:50:21.215Z,16.25
2018-12-01T03:52:51.117Z,15.35
2018-12-01T03:55:31.785Z,17.30
2018-12-01T03:58:00.894Z,19.50
2018-12-01T04:00:32.326Z,17.52
2018-12-01T04:03:01.816Z,17.57
2018-12-01T04:05:30.951Z,18.48
2018-12-01T04:07:59.637Z,18.95
2018-12-01T04:10:28.301Z,20.77
2018-12-01T04:12:57.126Z,17.00
2018-12-01T04:15:26.192Z,18.75
2018-12-01T04:17:54.882Z,17.70
2018-12-01T04:20:23.574Z,23.55
2018-12-01T04:22:52.259Z,18.87
2018-12-01T04:25:20.925Z,17.02
2018-12-01T04:27:49.612Z,16.93
2018-12-01T04:30:20.530Z,20.77
2018-12-01T04:32:49.213Z,17.52
2018-12-01T04:35:18.833Z,17.62
2018-12-01T04:37:50.623Z,18.73
2018-12-01T04:40:19.342Z,19.40
2018-12-01T04:42:48.482Z,20.17
2018-12-01T04:45:17.581Z,20.12
2018-12-01T04:47:46.336Z,17.80
2018-12-01T04:50:16.000Z,18.95
2018-12-01T04:52:45.480Z,18.85
2018-12-01T04:55:15.180Z,18.42
2018-12-01T04:57:43.858Z,18.48
2018-12-01T05:00:14.704Z,20.32
2018-12-01T05:02:43.379Z,18.92
2018-12-01T05:05:16.264Z,16.30
2018-12-01T05:07:44.933Z,18.00
2018-12-01T05:10:14.463Z,20.08
2018-12-01T05:12:43.125Z,20.15
2018-12-01T05:15:15.680Z,18.77
2018-12-01T05:17:44.652Z,19.77
2018-12-01T05:20:20.384Z,19.55
2018-12-01T05:22:49.577Z,20.45
2018-12-01T05:25:18.243Z,19.10
2018-12-01T05:27:46.906Z,18.92
2018-12-01T05:30:15.570Z,17.37
2018-12-01T05:32:44.258Z,18.05
2018-12-01T05:35:22.808Z,20.68
2018-12-01T05:37:51.510Z,20.77
2018-12-01T05:40:20.608Z,20.75
2018-12-01T05:42:49.315Z,22.17
2018-12-01T05:45:20.031Z,18.42
2018-12-01T05:47:49.025Z,17.90
2018-12-01T05:50:21.843Z,18.77
2018-12-01T05:52:51.522Z,19.95
2018-12-01T05:55:20.183Z,20.35
2018-12-01T05:57:48.872Z,19.17
2018-12-01T06:00:17.841Z,19.00
2018-12-01T06:02:46.518Z,16.87
2018-12-01T06:05:15.197Z,19.40
2018-12-01T06:07:44.268Z,18.82
2018-12-01T06:10:21.100Z,18.73
2018-12-01T06:12:51.745Z,20.35
2018-12-01T06:15:21.028Z,16.32
2018-12-01T06:17:49.708Z,19.17
2018-12-01T06:20:21.595Z,20.40
2018-12-01T06:22:50.266Z,21.00
2018-12-01T06:25:20.079Z,21.85
2018-12-01T06:27:48.736Z,21.12
2018-12-01T06:30:18.258Z,26.30
2018-12-01T06:32:47.968Z,19.80
2018-12-01T06:35:16.646Z,22.85
2018-12-01T06:37:45.372Z,22.48
2018-12-01T06:40:16.065Z,20.75
2018-12-01T06:42:44.746Z,21.87
2018-12-01T06:45:14.156Z,21.42
2018-12-01T06:47:42.882Z,27.02
2018-12-01T06:50:13.579Z,23.57
2018-12-01T06:52:42.964Z,23.77
2018-12-01T06:55:12.692Z,21.05
2018-12-01T06:57:41.895Z,22.67
2018-12-01T07:00:12.704Z,27.40
2018-12-01T07:02:41.935Z,24.10
2018-12-01T07:05:11.526Z,24.60
2018-12-01T07:07:40.210Z,24.52
2018-12-01T07:10:11.145Z,24.40
2018-12-01T07:12:41.881Z,28.45
2018-12-01T07:15:12.419Z,20.55
2018-12-01T07:17:41.116Z,20.60
2018-12-01T07:20:10.018Z,22.37
2018-12-01T07:22:38.684Z,25.37
2018-12-01T07:25:07.779Z,25.25
2018-12-01T07:27:36.442Z,21.37
2018-12-01T07:30:09.029Z,21.45
2018-12-01T07:32:37.706Z,20.75
2018-12-01T07:35:07.443Z,21.35
2018-12-01T07:37:36.522Z,22.35
2018-12-01T07:40:10.008Z,25.43
2018-12-01T07:42:38.698Z,21.33
2018-12-01T07:45:09.436Z,24.40
2018-12-01T07:47:38.101Z,23.77
2018-12-01T07:50:09.708Z,21.45
2018-12-01T07:52:38.393Z,23.10
2018-12-01T07:55:07.122Z,23.40
2018-12-01T07:57:35.806Z,21.62
2018-12-01T08:00:08.773Z,21.37
2018-12-01T08:02:37.679Z,21.37
2018-12-01T08:05:07.490Z,24.52
2018-12-01T08:07:36.166Z,23.65
2018-12-01T08:10:09.063Z,27.67
2018-12-01T08:12:37.736Z,31.97
2018-12-01T08:15:09.491Z,26.05
2018-12-01T08:17:38.273Z,26.80
2018-12-01T08:20:09.630Z,21.70
2018-12-01T08:22:38.415Z,17.85
2018-12-01T08:25:09.960Z,20.02
2018-12-01T08:27:38.634Z,21.23
2018-12-01T08:30:12.748Z,20.37
2018-12-01T08:32:41.423Z,18.80
2018-12-01T08:35:10.093Z,17.60
2018-12-01T08:37:38.773Z,17.57
2018-12-01T08:40:10.244Z,16.40
2018-12-01T08:42:38.926Z,16.30
2018-12-01T08:45:09.057Z,16.67
2018-12-01T08:47:37.853Z,12.60
2018-12-01T08:50:26.010Z,19.50
2018-12-01T08:52:54.770Z,14.87
2018-12-01T08:55:24.282Z,14.43
2018-12-01T08:57:53.594Z,13.73
2018-12-01T09:00:31.989Z,14.80
2018-12-01T09:03:06.834Z,13.67
2018-12-01T09:05:35.514Z,14.33
2018-12-01T09:08:04.646Z,13.43
2018-12-01T09:10:33.402Z,10.67
2018-12-01T09:13:02.066Z,10.30
2018-12-01T09:15:30.749Z,28.00
2018-12-01T09:17:59.441Z,20.63
2018-12-01T09:20:28.115Z,15.23
2018-12-01T09:22:56.803Z,10.70
2018-12-01T09:25:25.691Z,12.67
2018-12-01T09:27:54.391Z,11.63
2018-12-01T09:30:24.319Z,12.47
2018-12-01T09:32:53.014Z,11.50
2018-12-01T09:35:21.690Z,12.50
2018-12-01T09:37:50.493Z,13.03
2018-12-01T09:40:20.186Z,13.57
2018-12-01T09:42:48.989Z,13.87
2018-12-01T09:45:20.726Z,14.10
2018-12-01T09:47:50.355Z,13.57
2018-12-01T09:50:19.048Z,13.93
2018-12-01T09:52:49.882Z,15.13
2018-12-01T09:55:20.693Z,12.80
2018-12-01T09:57:49.362Z,13.37
2018-12-01T10:00:20.407Z,15.03
2018-12-01T10:02:49.092Z,13.93
2018-12-01T10:05:18.798Z,15.57
2018-12-01T10:07:47.480Z,15.17
2018-12-01T10:10:17.208Z,15.23
2018-12-01T10:12:47.020Z,15.63
2018-12-01T10:15:18.871Z,12.80
2018-12-01T10:17:47.563Z,14.53
2018-12-01T10:20:18.718Z,14.47
2018-12-01T10:22:47.366Z,13.60
2018-12-01T10:25:16.991Z,15.87
2018-12-01T10:27:46.276Z,15.13
2018-12-01T10:30:17.023Z,15.50
2018-12-01T10:32:45.906Z,13.73
2018-12-01T10:35:15.626Z,14.43
2018-12-01T10:37:45.830Z,14.87
2018-12-01T10:40:14.516Z,12.70
2018-12-01T10:42:43.175Z,12.43
2018-12-01T10:45:13.844Z,14.13
2018-12-01T10:47:43.029Z,14.30
2018-12-01T10:50:12.762Z,13.40
2018-12-01T10:52:41.452Z,11.67
2018-12-01T10:55:28.968Z,13.37
2018-12-01T10:57:59.899Z,12.13
2018-12-01T11:00:33.994Z,13.13
2018-12-01T11:03:06.054Z,12.53
2018-12-01T11:05:35.880Z,12.33
2018-12-01T11:08:06.525Z,14.70
2018-12-01T11:10:35.228Z,11.57
2018-12-01T11:13:03.904Z,16.10
2018-12-01T11:15:32.610Z,11.47
2018-12-01T11:18:01.269Z,12.63
2018-12-01T11:20:29.939Z,13.30
2018-12-01T11:22:58.606Z,13.47
2018-12-01T11:25:27.302Z,12.60
2018-12-01T11:27:55.973Z,11.50
2018-12-01T11:30:24.670Z,13.93
2018-12-01T11:32:53.342Z,12.90
2018-12-01T11:35:22.034Z,10.90
2018-12-01T11:37:50.930Z,12.23
2018-12-01T11:40:19.695Z,10.40
2018-12-01T11:42:48.577Z,11.10
2018-12-01T11:45:17.736Z,14.97
2018-12-01T11:47:46.415Z,10.80
2018-12-01T11:50:17.124Z,9.87
2018-12-01T11:52:46.847Z,12.10
2018-12-01T11:55:16.774Z,11.47
2018-12-01T11:57:45.449Z,9.28
2018-12-01T12:00:16.889Z,11.43
2018-12-01T12:02:45.684Z,9.50
2018-12-01T12:05:15.204Z,9.80
2018-12-01T12:07:55.501Z,10.13
2018-12-01T12:10:24.330Z,10.90
2018-12-01T12:12:52.989Z,12.90
2018-12-01T12:15:22.728Z,8.97
2018-12-01T12:17:55.817Z,11.80
2018-12-01T12:20:24.648Z,8.30
2018-12-01T12:22:53.348Z,13.30
2018-12-01T12:25:22.084Z,11.35
2018-12-01T12:27:50.760Z,9.13
2018-12-01T12:30:23.406Z,10.93
2018-12-01T12:32:49.706Z,8.53
2018-12-01T12:35:18.497Z,8.15
2018-12-01T12:37:47.178Z,11.85
2018-12-01T12:40:20.850Z,7.62
2018-12-01T12:42:49.621Z,10.72
2018-12-01T12:45:18.299Z,8.70
2018-12-01T12:47:46.985Z,10.15
2018-12-01T12:50:16.573Z,9.10
2018-12-01T12:52:47.276Z,7.30
2018-12-01T12:55:20.638Z,8.20
2018-12-01T12:57:49.417Z,6.40
2018-12-01T13:00:19.049Z,9.18
2018-12-01T13:02:51.990Z,9.53
2018-12-01T13:05:23.357Z,7.00
2018-12-01T13:07:52.149Z,10.15
2018-12-01T13:10:21.965Z,10.08
2018-12-01T13:12:51.805Z,7.15
2018-12-01T13:15:19.336Z,9.68
2018-12-01T13:17:48.089Z,10.23
2018-12-01T13:20:21.461Z,9.15
2018-12-01T13:22:52.445Z,9.85
2018-12-01T13:25:21.284Z,7.65
2018-12-01T13:27:57.389Z,8.98
2018-12-01T13:30:29.565Z,8.45
2018-12-01T13:32:58.338Z,7.95
2018-12-01T13:35:27.139Z,7.42
2018-12-01T13:37:55.897Z,8.75
2018-12-01T13:40:24.628Z,7.23
2018-12-01T13:42:53.374Z,6.70
2018-12-01T13:45:22.073Z,7.42
2018-12-01T13:47:50.978Z,7.05
2018-12-01T13:50:20.690Z,6.97
2018-12-01T13:52:53.771Z,8.45
2018-12-01T13:55:22.466Z,6.53
2018-12-01T13:57:51.186Z,7.03
2018-12-01T14:00:24.886Z,7.53
2018-12-01T14:02:53.560Z,7.25
2018-12-01T14:05:22.267Z,6.62
2018-12-01T14:07:50.996Z,7.83
2018-12-01T14:10:21.673Z,11.60
2018-12-01T14:12:51.894Z,8.63
2018-12-01T14:15:21.501Z,6.83
2018-12-01T14:17:50.247Z,6.70
2018-12-01T14:20:19.276Z,7.47
2018-12-01T14:22:48.772Z,8.20
2018-12-01T14:25:18.489Z,8.93
2018-12-01T14:28:20.836Z,8.58
2018-12-01T14:30:49.497Z,8.45
2018-12-01T14:33:18.210Z,6.22
2018-12-01T14:35:46.912Z,11.35
2018-12-01T14:38:16.949Z,9.37
2018-12-01T14:40:48.613Z,10.37
2018-12-01T14:43:17.409Z,7.87
2018-12-01T14:45:47.279Z,6.90
2018-12-01T14:48:15.954Z,6.53
2018-12-01T14:50:48.516Z,9.43
2018-12-01T14:53:14.692Z,8.53
2018-12-01T14:55:43.440Z,10.03
2018-12-01T14:58:12.085Z,8.47
2018-12-01T15:00:40.823Z,5.73
2018-12-01T15:03:09.499Z,7.30
2018-12-01T15:05:39.237Z,4.07
2018-12-01T15:08:08.232Z,7.80
2018-12-01T15:10:37.168Z,7.85
2018-12-01T15:13:06.201Z,8.83
2018-12-01T15:15:34.874Z,8.58
2018-12-01T15:18:03.549Z,6.08
2018-12-01T15:20:32.376Z,8.90
2018-12-01T15:23:01.066Z,7.62
2018-12-01T15:25:30.497Z,8.30
2018-12-01T15:27:59.162Z,7.53
2018-12-01T15:30:30.184Z,6.75
2018-12-01T15:33:00.281Z,8.35
2018-12-01T15:35:28.948Z,8.40
2018-12-01T15:37:57.673Z,9.13
2018-12-01T15:40:26.361Z,8.85
2018-12-01T15:42:55.043Z,8.63
2018-12-01T15:45:24.022Z,8.87
2018-12-01T15:47:52.710Z,5.90
2018-12-01T15:50:21.942Z,8.07
2018-12-01T15:52:53.239Z,8.40
2018-12-01T15:55:22.654Z,11.00
2018-12-01T15:57:51.562Z,9.33
2018-12-01T16:00:21.974Z,8.08
2018-12-01T16:02:50.680Z,8.33
2018-12-01T16:05:20.162Z,8.05
2018-12-01T16:07:50.181Z,9.67
2018-12-01T16:10:19.903Z,8.53
2018-12-01T16:12:52.992Z,10.18
2018-12-01T16:15:23.993Z,12.28
2018-12-01T16:17:52.715Z,10.53
2018-12-01T16:20:21.407Z,11.37
2018-12-01T16:22:50.187Z,12.83
2018-12-01T16:25:20.080Z,10.00
2018-12-01T16:27:48.895Z,10.03
2018-12-01T16:30:20.743Z,16.93
2018-12-01T16:32:51.014Z,10.65
2018-12-01T16:35:19.672Z,10.60
2018-12-01T16:37:48.357Z,11.80
2018-12-01T16:40:22.242Z,10.67
2018-12-01T16:42:50.934Z,13.28
2018-12-01T16:45:19.599Z,14.15
2018-12-01T16:47:48.290Z,13.62
2018-12-01T16:50:17.070Z,13.20
2018-12-01T16:52:46.900Z,15.10
2018-12-01T16:55:16.595Z,14.50
2018-12-01T16:57:45.330Z,12.85
2018-12-01T17:00:21.055Z,13.72
2018-12-01T17:02:51.356Z,14.47
2018-12-01T17:05:20.757Z,13.35
2018-12-01T17:07:49.976Z,14.57
2018-12-01T17:10:19.763Z,13.68
2018-12-01T17:12:49.995Z,15.38
2018-12-01T17:15:19.729Z,17.75
2018-12-01T17:17:48.442Z,11.90
2018-12-01T17:20:17.678Z,15.85
2018-12-01T17:22:55.696Z,13.60
2018-12-01T17:25:24.396Z,39.20
2018-12-01T17:27:54.424Z,19.57
2018-12-01T17:30:25.118Z,16.05
2018-12-01T17:32:54.535Z,21.80
2018-12-01T17:35:25.505Z,20.43
2018-12-01T17:37:55.503Z,18.90
2018-12-01T17:40:32.343Z,19.77
2018-12-01T17:43:01.033Z,16.35
2018-12-01T17:45:29.895Z,24.72
2018-12-01T17:47:58.565Z,21.07
2018-12-01T17:50:27.310Z,20.50
2018-12-01T17:52:56.710Z,20.08
2018-12-01T17:55:26.945Z,22.22
2018-12-01T17:57:55.769Z,18.98
2018-12-01T18:00:25.924Z,19.42
2018-12-01T18:02:57.121Z,22.77
2018-12-01T18:05:28.830Z,16.20
2018-12-01T18:07:57.513Z,17.30
2018-12-01T18:10:26.202Z,23.60
2018-12-01T18:12:54.905Z,23.62
2018-12-01T18:15:23.654Z,19.32
2018-12-01T18:17:52.378Z,20.70
2018-12-01T18:20:21.835Z,18.32
2018-12-01T18:22:55.808Z,19.55
2018-12-01T18:25:24.670Z,24.77
2018-12-01T18:27:56.740Z,21.70
2018-12-01T18:30:30.129Z,18.23
2018-12-01T18:33:00.952Z,23.62
2018-12-01T18:35:29.626Z,28.73
2018-12-01T18:37:58.341Z,30.95
2018-12-01T18:40:27.011Z,73.87
2018-12-01T18:42:55.690Z,79.42
2018-12-01T18:45:24.408Z,60.73
2018-12-01T18:47:53.092Z,19.70
2018-12-01T18:50:21.764Z,36.55
2018-12-01T18:52:57.642Z,29.00
2018-12-01T18:55:27.624Z,21.00
2018-12-01T18:57:56.333Z,18.70
2018-12-01T19:00:34.242Z,19.82
2018-12-01T19:03:02.932Z,23.25
2018-12-01T19:05:31.630Z,17.90
2018-12-01T19:08:00.358Z,17.75
2018-12-01T19:10:29.052Z,14.07
2018-12-01T19:12:57.738Z,16.10
2018-12-01T19:15:26.421Z,16.40
2018-12-01T19:17:55.206Z,16.85
2018-12-01T19:20:23.881Z,14.83
2018-12-01T19:22:52.586Z,14.10
2018-12-01T19:25:22.389Z,13.53
2018-12-01T19:27:52.310Z,14.03
2018-12-01T19:30:21.709Z,11.12
2018-12-01T19:32:53.878Z,14.68
2018-12-01T19:35:22.638Z,12.60
2018-12-01T19:37:52.572Z,15.48
2018-12-01T19:40:22.606Z,15.25
2018-12-01T19:42:51.512Z,13.48
2018-12-01T19:45:20.270Z,13.93
2018-12-01T19:47:48.961Z,12.75
2018-12-01T19:50:19.273Z,17.60
2018-12-01T19:52:47.969Z,15.72
2018-12-01T19:55:18.159Z,15.72
2018-12-01T19:57:48.117Z,14.10
2018-12-01T20:00:18.902Z,12.20
2018-12-01T20:02:48.179Z,11.20
2018-12-01T20:05:18.097Z,12.80
2018-12-01T20:07:47.471Z,14.80
2018-12-01T20:10:19.827Z,12.45
2018-12-01T20:12:53.325Z,17.17
2018-12-01T20:15:59.139Z,10.90
2018-12-01T20:18:28.560Z,11.93
2018-12-01T20:20:57.360Z,13.20
2018-12-01T20:23:26.213Z,12.53
2018-12-01T20:25:55.332Z,9.85
2018-12-01T20:28:24.169Z,12.90
2018-12-01T20:30:52.995Z,13.45
2018-12-01T20:33:22.091Z,12.20
2018-12-01T20:35:54.929Z,11.70
2018-12-01T20:38:27.310Z,12.63
2018-12-01T20:40:57.667Z,11.53
2018-12-01T20:43:24.988Z,14.40
2018-12-01T20:45:53.801Z,13.70
2018-12-01T20:48:22.584Z,10.63
2018-12-01T20:50:51.534Z,12.03
2018-12-01T20:53:20.492Z,10.25
2018-12-01T20:55:53.359Z,10.55
2018-12-01T20:58:22.883Z,12.33
2018-12-01T21:00:51.709Z,8.45
2018-12-01T21:03:20.407Z,10.90
2018-12-01T21:05:49.203Z,10.43
2018-12-01T21:08:18.525Z,10.23
2018-12-01T21:10:50.474Z,11.12
2018-12-01T21:13:19.543Z,9.30
2018-12-01T21:15:48.315Z,10.63
2018-12-01T21:18:17.106Z,9.85
2018-12-01T21:20:45.929Z,9.63
2018-12-01T21:23:14.931Z,9.45
2018-12-01T21:25:43.726Z,9.85
2018-12-01T21:28:12.668Z,11.35
2018-12-01T21:30:41.707Z,12.07
2018-12-01T21:33:12.175Z,9.48
2018-12-01T21:35:40.963Z,9.15
2018-12-01T21:38:11.458Z,9.90
2018-12-01T21:40:41.044Z,9.93
2018-12-01T21:43:10.422Z,7.12
2018-12-01T21:45:39.110Z,9.70
2018-12-01T21:48:10.422Z,7.53
2018-12-01T21:50:40.072Z,9.08
2018-12-01T21:53:12.756Z,9.48
2018-12-01T21:55:41.539Z,11.85
2018-12-01T21:58:10.254Z,13.35
2018-12-01T22:00:47.474Z,9.10
2018-12-01T22:03:17.053Z,9.10
2018-12-01T22:06:01.884Z,13.03
2018-12-01T22:08:31.587Z,11.35
2018-12-01T22:11:00.388Z,8.50
2018-12-01T22:13:29.065Z,9.60
2018-12-01T22:15:57.855Z,9.53
2018-12-01T22:18:26.683Z,10.32
2018-12-01T22:20:55.410Z,9.75
2018-12-01T22:23:24.113Z,10.13
2018-12-01T22:25:52.794Z,8.88
2018-12-01T22:28:21.460Z,8.95
2018-12-01T22:30:52.113Z,8.28
2018-12-01T22:33:23.356Z,9.08
2018-12-01T22:35:52.057Z,8.18
2018-12-01T22:38:20.716Z,7.72
2018-12-01T22:40:49.397Z,7.58
2018-12-01T22:43:18.184Z,9.28
2018-12-01T22:45:46.909Z,9.25
2018-12-01T22:48:17.197Z,7.72
2018-12-01T22:50:47.425Z,7.28
2018-12-01T22:53:16.204Z,9.75
2018-12-01T22:55:45.400Z,8.70
2018-12-01T22:58:15.225Z,10.08
2018-12-01T23:00:45.624Z,8.15
2018-12-01T23:03:14.293Z,6.97
2018-12-01T23:05:43.029Z,8.08
2018-12-01T23:08:13.242Z,6.03
2018-12-01T23:10:41.953Z,6.05
2018-12-01T23:13:10.849Z,7.47
2018-12-01T23:15:39.590Z,5.37
2018-12-01T23:18:09.726Z,8.60
2018-12-01T23:20:39.030Z,6.25
2018-12-01T23:23:07.846Z,8.73
2018-12-01T23:25:36.530Z,5.53
2018-12-01T23:28:05.933Z,7.92
2018-12-01T23:30:34.611Z,6.40
2018-12-01T23:33:07.261Z,6.28
2018-12-01T23:35:35.909Z,5.40
2018-12-01T23:38:04.834Z,6.40
2018-12-01T23:40:33.531Z,6.12
2018-12-01T23:43:02.207Z,6.25
2018-12-01T23:45:31.391Z,7.33
2018-12-01T23:48:00.102Z,6.83
2018-12-01T23:50:28.794Z,8.28
2018-12-01T23:52:58.675Z,5.25
2018-12-01T23:55:27.360Z,7.92
2018-12-01T23:57:56.023Z,6.35
